Portada
METAR-TAF:

METAR-TAF

Aeropuertos :

Damasco, Siria

Aeropuerto Internacional de Damasco

latitud: 33-25N, longitud: 036-31E, altitud: 608 m

Observación

El informe se hizo hace 18 minutos, a las 15:00 UTC
Viento calma
Temperatura 14°C
Humedad 23%
Presión 1026 hPa
Visibilidad 10 km o más
sin nubes por debajo de 1500 m y sin presencia de cumulonimbus.

METAR: OSDI 111500Z 00000KT CAVOK 14/M07 Q1026

Hora: 17:18 (15:18 UTC)

Pronóstico

El informe se hizo hace 5 horas y 18 minutos, a las 10:00 UTC
Pronóstico válido del 11 a las 12 UTC al 12 a las 18 UTC
Viento 3 kt con dirección variable
Visibilidad 10 km o más
sin nubes por debajo de 1500 m y sin presencia de cumulonimbus.
Evolucionando progresivamente
del 12 a las 09 UTC al 12 a las 11 UTC
Viento 18 kt del suroeste
Visibilidad 10 km o más
Nubes dispersas a una altura de 3000 ft
Cielo nuboso a una altura de 10000 ft

TAF: OSDI 111000Z 1112/1218 VRB03KT CAVOK BECMG 1209/1211 23018KT 9999 SCT030 BKN100

Observaciones y pronósticos meteorológicos de más de 4000 aeropuertos (mensajes METAR y TAF).

Los puntos amarillos y rojos representan las estaciones disponibles.

Ponga el ratón en el punto deseado para ver el nombre de la estación.

Haga clic para ver las observaciones y los pronósticos meteorológicos.

Para cambiar el mapa : haga clic en los botones verdes con una cruz de color negro para hacer un zoom, en el botón verde con un guión para alejar o en las flechas verdes para mapas adyacentes.


METAR-TAF: